Time;durP1;ratioP1;P1;durP2;ratioP2;P2;SDS_P1;SDS_P2;PMS_P1;PMS_P2;Temp;Humidity;BMP_temperature;BMP_pressure;BME280_temperature;BME280_humidity;BME280_pressure;Samples;Min_cycle;Max_cycle;Signal;HPM_P1;HPM_P2
2022/05/07 00:01:17;;;;;;;127.15;116.45;;;15.00;72.20;;;;;;5034665;28;20060;-76
2022/05/07 00:03:44;;;;;;;126.97;116.43;;;14.90;72.50;;;;;;5034329;28;20042;-75
2022/05/07 00:06:11;;;;;;;127.72;117.10;;;14.90;72.80;;;;;;5035937;28;20111;-76
2022/05/07 00:08:38;;;;;;;126.88;116.28;;;14.90;73.10;;;;;;5017645;28;20037;-75
2022/05/07 00:11:05;;;;;;;127.55;116.80;;;14.80;73.30;;;;;;5034472;28;20065;-75
2022/05/07 00:13:33;;;;;;;130.05;118.55;;;14.80;73.60;;;;;;5034312;28;20045;-75
2022/05/07 00:18:50;;;;;;;130.90;119.20;;;14.80;74.10;;;;;;4979497;28;20131;-76
2022/05/07 00:21:17;;;;;;;131.50;120.13;;;14.80;74.30;;;;;;5034228;28;20056;-75
2022/05/07 00:23:45;;;;;;;132.90;121.40;;;14.70;74.80;;;;;;5033568;28;20127;-75
2022/05/07 00:26:11;;;;;;;133.38;121.82;;;14.70;74.90;;;;;;5034032;28;20165;-75
2022/05/07 00:28:40;;;;;;;132.77;121.20;;;14.70;75.20;;;;;;5033783;28;20080;-76
2022/05/07 00:31:07;;;;;;;131.82;120.85;;;14.70;75.40;;;;;;5017387;28;20050;-76
2022/05/07 00:33:35;;;;;;;132.43;121.15;;;14.70;75.30;;;;;;5016324;28;20046;-75
2022/05/07 00:36:02;;;;;;;131.57;120.47;;;14.70;75.20;;;;;;5035051;28;20057;-76
2022/05/07 00:38:29;;;;;;;134.10;122.32;;;14.70;75.90;;;;;;5032287;28;20763;-75
2022/05/07 00:40:56;;;;;;;129.55;118.40;;;14.70;76.10;;;;;;5017218;28;20139;-76
2022/05/07 00:43:24;;;;;;;131.85;120.50;;;14.60;76.50;;;;;;5033013;28;20074;-76
2022/05/07 00:45:58;;;;;;;129.50;118.53;;;14.60;77.00;;;;;;5033916;28;20594;-75
2022/05/07 00:48:25;;;;;;;129.43;118.68;;;14.60;77.20;;;;;;5017223;28;20476;-75
2022/05/07 00:53:38;;;;;;;130.50;119.40;;;14.60;77.30;;;;;;5017305;28;20209;-75
2022/05/07 00:56:06;;;;;;;130.77;119.50;;;14.60;77.70;;;;;;5000515;28;20915;-75
2022/05/07 00:58:35;;;;;;;132.30;120.82;;;14.60;78.00;;;;;;5033071;28;20049;-76
2022/05/07 01:01:03;;;;;;;130.82;119.43;;;14.60;78.20;;;;;;5033555;28;20052;-76
2022/05/07 01:03:31;;;;;;;129.20;118.22;;;14.60;78.30;;;;;;5017030;28;20053;-75
2022/05/07 01:05:59;;;;;;;131.65;120.20;;;14.50;78.20;;;;;;5017025;28;20092;-76
2022/05/07 01:08:26;;;;;;;142.70;130.85;;;14.50;78.30;;;;;;5016614;28;20046;-75
2022/05/07 01:10:56;;;;;;;135.77;124.35;;;14.50;78.60;;;;;;5016771;28;20507;-75
2022/05/07 01:13:23;;;;;;;133.35;121.97;;;14.50;79.00;;;;;;5016717;28;20750;-76
2022/05/07 01:15:56;;;;;;;129.55;118.53;;;14.50;79.60;;;;;;5016544;28;20046;-75
2022/05/07 01:18:26;;;;;;;134.02;122.82;;;14.50;80.20;;;;;;5034055;28;20065;-75
2022/05/07 01:20:57;;;;;;;134.32;123.03;;;14.40;80.50;;;;;;5016630;28;20088;-75
2022/05/07 01:23:26;;;;;;;145.45;133.48;;;14.50;80.70;;;;;;5016664;28;20500;-75
2022/05/07 01:25:58;;;;;;;137.63;125.97;;;14.40;80.80;;;;;;5016646;28;20144;-75
2022/05/07 01:28:28;;;;;;;133.20;122.03;;;14.40;80.80;;;;;;5034467;28;20132;-75
2022/05/07 01:30:55;;;;;;;141.95;130.25;;;14.40;80.70;;;;;;5016915;28;20073;-76
2022/05/07 01:33:22;;;;;;;136.02;124.30;;;14.40;81.10;;;;;;5032655;28;20046;-75
2022/05/07 01:35:49;;;;;;;132.95;121.40;;;14.40;81.50;;;;;;5016580;28;20050;-75
2022/05/07 01:38:16;;;;;;;132.90;121.53;;;14.40;81.50;;;;;;5016556;28;20045;-76
2022/05/07 01:40:45;;;;;;;134.75;123.05;;;14.40;81.90;;;;;;5016253;28;20050;-75
2022/05/07 01:43:12;;;;;;;132.23;120.82;;;14.40;82.20;;;;;;5016880;28;20053;-76
2022/05/07 01:45:40;;;;;;;134.52;122.93;;;14.40;82.40;;;;;;5003187;28;20564;-76
2022/05/07 01:48:09;;;;;;;135.35;123.75;;;14.40;82.60;;;;;;5032552;28;20514;-75
2022/05/07 01:50:40;;;;;;;133.43;121.68;;;14.40;83.10;;;;;;5016626;28;20050;-75
2022/05/07 01:53:08;;;;;;;133.52;122.03;;;14.40;83.20;;;;;;4999668;28;20128;-75
2022/05/07 01:55:36;;;;;;;135.93;124.40;;;14.40;83.40;;;;;;4999574;28;20062;-75
2022/05/07 01:58:05;;;;;;;134.40;122.70;;;14.40;83.70;;;;;;5016184;28;20056;-75
2022/05/07 02:00:33;;;;;;;134.18;122.53;;;14.40;84.00;;;;;;5015936;28;20093;-76
2022/05/07 02:03:01;;;;;;;135.65;123.50;;;14.40;83.70;;;;;;5032477;28;20053;-75
2022/05/07 02:05:30;;;;;;;133.68;122.00;;;14.40;83.90;;;;;;5015951;28;20072;-75
2022/05/07 02:07:58;;;;;;;131.38;120.18;;;14.30;84.00;;;;;;5016838;28;20050;-76
2022/05/07 02:10:25;;;;;;;134.48;122.85;;;14.40;84.20;;;;;;5019489;28;20128;-75
2022/05/07 02:12:54;;;;;;;133.95;121.82;;;14.40;84.10;;;;;;5016408;28;20084;-75
2022/05/07 02:15:24;;;;;;;136.60;124.85;;;14.40;84.10;;;;;;5015875;28;20057;-76
2022/05/07 02:17:56;;;;;;;132.65;121.05;;;14.40;84.40;;;;;;4999331;28;20042;-75
2022/05/07 02:20:23;;;;;;;136.75;124.65;;;14.40;84.40;;;;;;5015867;28;20052;-75
2022/05/07 02:22:55;;;;;;;134.82;123.15;;;14.40;85.00;;;;;;5016063;28;20141;-75
2022/05/07 02:25:23;;;;;;;138.20;126.28;;;14.40;85.80;;;;;;5015673;28;20056;-75
2022/05/07 02:27:53;;;;;;;134.82;123.15;;;14.40;86.70;;;;;;5015392;28;20050;-75
2022/05/07 02:30:24;;;;;;;136.95;124.97;;;14.40;87.30;;;;;;5015529;28;20205;-75
2022/05/07 02:32:51;;;;;;;134.77;123.20;;;14.40;87.60;;;;;;4998976;28;20515;-75
2022/05/07 02:35:21;;;;;;;134.48;122.88;;;14.40;87.60;;;;;;5015533;28;20144;-75
2022/05/07 02:37:48;;;;;;;135.20;123.25;;;14.40;87.60;;;;;;5015268;28;20132;-76
2022/05/07 02:40:15;;;;;;;134.45;122.75;;;14.40;87.50;;;;;;5015597;28;20611;-75
2022/05/07 02:42:45;;;;;;;135.93;123.80;;;14.30;87.20;;;;;;5015545;28;20046;-75
2022/05/07 02:45:15;;;;;;;135.98;124.07;;;14.30;87.00;;;;;;5015478;28;20054;-75
2022/05/07 02:47:46;;;;;;;137.20;125.18;;;14.30;86.90;;;;;;5015057;28;20046;-75
2022/05/07 02:50:15;;;;;;;137.75;125.72;;;14.30;87.00;;;;;;5015980;28;20050;-75
2022/05/07 02:52:43;;;;;;;136.90;124.85;;;14.30;87.00;;;;;;5015355;28;20096;-75
2022/05/07 02:55:11;;;;;;;138.05;126.30;;;14.30;87.40;;;;;;5031975;28;20086;-75
2022/05/07 02:57:41;;;;;;;138.35;126.35;;;14.30;87.50;;;;;;5015154;28;20815;-75
2022/05/07 03:00:10;;;;;;;139.10;126.90;;;14.30;87.50;;;;;;5015282;28;20965;-75
2022/05/07 03:02:38;;;;;;;138.88;126.57;;;14.30;88.10;;;;;;5015309;28;20092;-75
2022/05/07 03:05:08;;;;;;;139.13;127.22;;;14.40;88.20;;;;;;5000076;28;20054;-75
2022/05/07 03:07:35;;;;;;;140.32;127.93;;;14.30;88.20;;;;;;5018722;28;20978;-75
2022/05/07 03:10:09;;;;;;;138.60;126.78;;;14.30;88.10;;;;;;5035633;28;20549;-76
2022/05/07 03:12:37;;;;;;;140.35;128.35;;;14.30;87.70;;;;;;5018683;28;20087;-75
2022/05/07 03:15:06;;;;;;;141.30;129.05;;;14.30;87.70;;;;;;5035041;28;20072;-75
2022/05/07 03:17:36;;;;;;;137.15;124.38;;;14.30;87.60;;;;;;5018747;28;20042;-75
2022/05/07 03:20:09;;;;;;;137.02;124.38;;;14.30;87.20;;;;;;5018575;28;20046;-75
2022/05/07 03:22:39;;;;;;;142.55;127.50;;;14.30;88.10;;;;;;5002146;28;20046;-76
2022/05/07 03:25:07;;;;;;;140.48;126.72;;;14.30;88.40;;;;;;5034936;28;20053;-75
2022/05/07 03:27:34;;;;;;;139.52;126.45;;;14.30;88.50;;;;;;5018195;28;20049;-75
2022/05/07 03:30:07;;;;;;;142.15;128.77;;;14.30;88.10;;;;;;5017761;28;20042;-75
2022/05/07 03:32:46;;;;;;;137.40;124.80;;;14.30;88.10;;;;;;5017848;28;20162;-75
2022/05/07 03:35:13;;;;;;;139.10;125.95;;;14.30;87.80;;;;;;5018495;28;20072;-75
2022/05/07 03:37:46;;;;;;;136.85;124.30;;;14.30;87.90;;;;;;5020995;28;20081;-75
2022/05/07 03:40:14;;;;;;;137.43;125.05;;;14.30;88.40;;;;;;5034618;28;20061;-75
2022/05/07 03:42:43;;;;;;;138.10;125.35;;;14.30;87.80;;;;;;5034531;28;20053;-76
2022/05/07 03:45:11;;;;;;;138.40;126.05;;;14.30;87.80;;;;;;5017748;28;20601;-75
2022/05/07 03:47:41;;;;;;;136.85;124.68;;;14.30;88.30;;;;;;5018140;28;20124;-75
2022/05/07 03:50:09;;;;;;;136.13;124.00;;;14.30;88.40;;;;;;5017839;28;20488;-75
2022/05/07 03:55:24;;;;;;;136.40;124.38;;;14.30;88.50;;;;;;5017946;28;20065;-75
2022/05/07 03:57:51;;;;;;;136.60;124.60;;;14.30;88.60;;;;;;5017594;28;20559;-75
2022/05/07 04:00:25;;;;;;;136.80;125.05;;;14.30;88.80;;;;;;5000994;28;20100;-75
2022/05/07 04:02:55;;;;;;;137.48;125.50;;;14.20;89.20;;;;;;5017661;28;20641;-75
2022/05/07 04:05:32;;;;;;;138.35;126.25;;;14.20;88.90;;;;;;5017472;28;20909;-75
2022/05/07 04:08:08;;;;;;;136.00;123.93;;;14.20;88.90;;;;;;5034267;28;20053;-75
2022/05/07 04:10:37;;;;;;;136.95;125.20;;;14.20;88.00;;;;;;5033883;28;20053;-75
2022/05/07 04:13:06;;;;;;;136.90;124.97;;;14.20;88.60;;;;;;5033913;28;20065;-75
2022/05/07 04:15:33;;;;;;;137.20;125.03;;;14.20;88.60;;;;;;5017528;28;20045;-76
2022/05/07 04:18:03;;;;;;;138.45;126.15;;;14.20;88.50;;;;;;5016829;28;20046;-75
2022/05/07 04:20:31;;;;;;;139.68;127.40;;;14.20;88.80;;;;;;5017558;28;20057;-75
2022/05/07 04:23:06;;;;;;;137.10;125.05;;;14.20;88.90;;;;;;5017965;28;20096;-75
2022/05/07 04:25:33;;;;;;;138.88;126.47;;;14.20;88.80;;;;;;5017053;28;20061;-75
2022/05/07 04:28:02;;;;;;;137.65;125.75;;;14.20;88.90;;;;;;5016780;28;20046;-76
2022/05/07 04:30:29;;;;;;;138.55;126.53;;;14.20;89.00;;;;;;5034273;28;20496;-75
2022/05/07 04:32:57;;;;;;;136.90;124.80;;;14.20;89.40;;;;;;5017626;28;20096;-75
2022/05/07 04:35:25;;;;;;;135.70;123.90;;;14.20;90.00;;;;;;5017302;28;20054;-75
2022/05/07 04:37:52;;;;;;;139.40;127.35;;;14.20;90.20;;;;;;5017172;28;20061;-75
2022/05/07 04:40:19;;;;;;;140.13;127.60;;;14.10;90.30;;;;;;5017408;28;20064;-75
2022/05/07 04:42:47;;;;;;;140.35;127.95;;;14.10;90.30;;;;;;5017388;28;20042;-75
2022/05/07 04:45:15;;;;;;;140.30;127.78;;;14.10;90.40;;;;;;5000797;28;20046;-75
2022/05/07 04:47:47;;;;;;;141.00;128.43;;;14.10;90.60;;;;;;5016678;28;20113;-75
2022/05/07 04:50:22;;;;;;;140.05;127.70;;;14.10;90.80;;;;;;5016789;28;20081;-75
2022/05/07 04:52:55;;;;;;;141.98;129.38;;;14.10;90.90;;;;;;5017383;28;20132;-75
2022/05/07 04:55:22;;;;;;;140.63;128.38;;;14.10;91.00;;;;;;5017160;28;20593;-75
2022/05/07 04:57:54;;;;;;;142.77;130.23;;;14.10;91.10;;;;;;5016484;28;20133;-75
2022/05/07 05:00:27;;;;;;;142.73;130.10;;;14.10;91.10;;;;;;5033442;28;20572;-75
2022/05/07 05:03:13;;;;;;;141.00;128.60;;;14.10;91.20;;;;;;5012333;28;20046;-75
2022/05/07 05:05:44;;;;;;;142.75;130.02;;;14.10;91.30;;;;;;4998756;28;20140;-75
2022/05/07 05:08:20;;;;;;;141.13;128.57;;;14.00;91.30;;;;;;5015597;28;20499;-75
2022/05/07 05:10:47;;;;;;;143.48;130.48;;;14.00;91.40;;;;;;5015526;28;20058;-75
2022/05/07 05:13:16;;;;;;;141.15;128.77;;;14.00;91.50;;;;;;5016003;28;20050;-75
2022/05/07 05:15:48;;;;;;;139.40;126.72;;;14.00;91.50;;;;;;5000526;28;20530;-75
2022/05/07 05:18:29;;;;;;;141.75;129.27;;;14.00;91.70;;;;;;5032906;28;20042;-75
2022/05/07 05:20:56;;;;;;;140.85;128.45;;;14.00;91.80;;;;;;5032808;28;20049;-75
2022/05/07 05:23:27;;;;;;;133.50;121.75;;;14.00;91.90;;;;;;5016678;28;20140;-75
2022/05/07 05:25:54;;;;;;;137.38;124.60;;;14.00;91.90;;;;;;5015855;28;20140;-74
2022/05/07 05:28:43;;;;;;;136.48;124.28;;;14.00;92.00;;;;;;5013555;28;20062;-74
2022/05/07 05:31:13;;;;;;;141.43;128.80;;;14.00;92.10;;;;;;5014029;28;20057;-74
2022/05/07 05:33:44;;;;;;;141.00;128.52;;;14.00;92.30;;;;;;5014271;28;20159;-74
2022/05/07 05:36:18;;;;;;;133.95;121.97;;;14.10;92.30;;;;;;4998685;28;20042;-74
2022/05/07 05:38:48;;;;;;;138.60;126.38;;;14.10;92.30;;;;;;5043583;28;20058;-74
2022/05/07 05:41:21;;;;;;;140.43;127.85;;;14.10;92.50;;;;;;5016888;28;20058;-76
2022/05/07 05:43:49;;;;;;;138.52;126.10;;;14.10;92.60;;;;;;5005751;28;20054;-76
2022/05/07 05:46:18;;;;;;;140.38;127.75;;;14.20;92.60;;;;;;4969448;28;20506;-76
2022/05/07 05:48:48;;;;;;;134.35;122.50;;;14.20;92.60;;;;;;5040825;28;20045;-76
2022/05/07 05:51:15;;;;;;;134.20;122.13;;;14.20;92.60;;;;;;5015190;28;20562;-76
2022/05/07 05:53:45;;;;;;;138.38;126.25;;;14.20;92.60;;;;;;5015526;28;20124;-76
2022/05/07 05:56:14;;;;;;;130.15;118.60;;;14.20;92.70;;;;;;5006220;28;20049;-76
2022/05/07 05:58:46;;;;;;;135.10;123.25;;;14.20;92.80;;;;;;4999505;28;20052;-76
2022/05/07 06:01:14;;;;;;;136.88;125.07;;;14.20;92.80;;;;;;5032457;28;20084;-77
2022/05/07 06:04:07;;;;;;;138.73;126.32;;;14.20;92.90;;;;;;5010013;28;20054;-75
2022/05/07 06:06:34;;;;;;;138.98;126.55;;;14.20;92.90;;;;;;5025804;28;20053;-75
2022/05/07 06:09:01;;;;;;;141.40;128.88;;;14.30;92.90;;;;;;5006843;28;20526;-75
2022/05/07 06:11:28;;;;;;;135.35;123.35;;;14.30;93.00;;;;;;4999207;28;20504;-75
2022/05/07 06:13:55;;;;;;;131.63;119.93;;;14.30;93.20;;;;;;5030458;28;20051;-75
2022/05/07 06:16:22;;;;;;;141.15;129.02;;;14.40;93.30;;;;;;5015526;28;20136;-75
2022/05/07 06:18:49;;;;;;;141.25;128.75;;;14.40;93.30;;;;;;5004110;28;20056;-75
2022/05/07 06:21:18;;;;;;;137.55;125.20;;;14.40;93.30;;;;;;5014737;28;20058;-75
2022/05/07 06:23:45;;;;;;;136.98;124.95;;;14.50;93.30;;;;;;5009258;28;20051;-75
2022/05/07 06:29:03;;;;;;;137.32;125.15;;;14.60;93.10;;;;;;5015654;28;20593;-83
2022/05/07 06:31:36;;;;;;;140.70;128.20;;;14.60;93.20;;;;;;5018613;28;20679;-76
2022/05/07 06:34:03;;;;;;;138.75;126.38;;;14.60;93.10;;;;;;5011366;28;20055;-76
2022/05/07 06:36:32;;;;;;;139.38;126.22;;;14.60;93.10;;;;;;5023539;28;20058;-79
2022/05/07 06:39:00;;;;;;;139.10;126.47;;;14.70;93.30;;;;;;5023491;28;20124;-80
2022/05/07 06:41:27;;;;;;;140.70;127.90;;;14.70;93.30;;;;;;5019143;28;20868;-81
2022/05/07 06:44:00;;;;;;;139.32;126.75;;;14.70;93.20;;;;;;5022556;28;20054;-84
2022/05/07 06:46:32;;;;;;;138.98;126.68;;;14.80;93.20;;;;;;5024801;28;20049;-85
2022/05/07 06:49:05;;;;;;;139.45;126.70;;;14.80;93.40;;;;;;5019212;28;20538;-85
2022/05/07 06:51:50;;;;;;;139.23;126.47;;;14.90;93.40;;;;;;5017748;28;20049;-82
2022/05/07 06:54:17;;;;;;;140.18;127.57;;;14.90;93.20;;;;;;5017672;28;20052;-83
2022/05/07 06:56:44;;;;;;;138.98;126.53;;;14.90;93.10;;;;;;5013389;28;20284;-80
2022/05/07 06:59:11;;;;;;;140.38;127.47;;;14.90;93.10;;;;;;5019288;28;20050;-78
2022/05/07 07:01:39;;;;;;;137.75;125.72;;;14.90;92.90;;;;;;5011252;28;20050;-78
2022/05/07 07:04:06;;;;;;;138.10;125.65;;;14.90;92.70;;;;;;5028782;28;20056;-78
2022/05/07 07:06:33;;;;;;;137.35;125.15;;;15.00;92.80;;;;;;5027549;28;20575;-78
2022/05/07 07:09:01;;;;;;;138.43;126.05;;;15.00;92.90;;;;;;5011868;28;20591;-78
2022/05/07 07:11:28;;;;;;;137.65;125.28;;;15.10;92.50;;;;;;5028160;28;20054;-78
2022/05/07 07:13:55;;;;;;;136.38;124.43;;;15.10;92.40;;;;;;5027778;28;20050;-78
2022/05/07 07:16:22;;;;;;;138.52;126.25;;;15.10;92.40;;;;;;4994997;28;20588;-78
2022/05/07 07:18:49;;;;;;;137.13;124.80;;;15.20;92.50;;;;;;5011489;28;20101;-78
2022/05/07 07:21:17;;;;;;;135.65;123.78;;;15.20;92.40;;;;;;5028445;28;20547;-78
2022/05/07 07:23:44;;;;;;;136.20;124.25;;;15.20;92.20;;;;;;5028204;28;20994;-77
2022/05/07 07:26:12;;;;;;;134.55;122.60;;;15.20;92.10;;;;;;5027662;28;20058;-78
2022/05/07 07:28:39;;;;;;;133.10;121.30;;;15.20;91.70;;;;;;4994620;28;20056;-78
2022/05/07 07:31:06;;;;;;;132.65;120.93;;;15.30;91.40;;;;;;4979348;28;20074;-79
2022/05/07 07:33:37;;;;;;;128.50;117.20;;;15.30;91.10;;;;;;5026969;28;20085;-76
2022/05/07 07:36:04;;;;;;;127.45;116.20;;;15.30;90.60;;;;;;5027951;28;20117;-76
2022/05/07 07:38:32;;;;;;;125.68;114.70;;;15.40;90.90;;;;;;4994657;28;20150;-74
2022/05/07 07:41:00;;;;;;;131.38;119.78;;;15.40;90.90;;;;;;5027815;28;20496;-74
2022/05/07 07:43:29;;;;;;;132.23;120.47;;;15.50;90.90;;;;;;5027862;28;20130;-77
2022/05/07 07:48:40;;;;;;;127.50;116.30;;;15.50;90.50;;;;;;4994147;28;20051;-77
2022/05/07 07:51:08;;;;;;;130.75;119.22;;;15.60;90.30;;;;;;5015105;28;20054;-77
2022/05/07 07:53:38;;;;;;;133.45;121.50;;;15.60;90.10;;;;;;5018007;28;20057;-79
2022/05/07 07:56:07;;;;;;;136.18;124.13;;;15.70;90.50;;;;;;5017840;28;20138;-75
2022/05/07 07:58:36;;;;;;;131.23;119.53;;;15.70;90.70;;;;;;5034898;28;20930;-74
2022/05/07 08:01:03;;;;;;;130.70;119.22;;;15.80;90.50;;;;;;5037264;28;20117;-78
2022/05/07 08:03:30;;;;;;;136.93;124.72;;;15.90;90.50;;;;;;5038173;28;20053;-79
2022/05/07 08:05:57;;;;;;;138.63;126.32;;;15.90;90.60;;;;;;5037917;28;20084;-76
2022/05/07 08:13:55;;;;;;;139.93;127.45;;;16.10;90.40;;;;;;5019711;28;20077;-82
2022/05/07 08:16:24;;;;;;;135.65;123.80;;;16.10;90.30;;;;;;5003377;28;20076;-79
2022/05/07 08:18:51;;;;;;;134.27;122.38;;;16.20;90.40;;;;;;5027409;28;20141;-84
2022/05/07 08:21:18;;;;;;;136.02;124.30;;;16.20;90.40;;;;;;5052084;28;20523;-83
2022/05/07 08:23:45;;;;;;;140.18;128.00;;;16.30;90.40;;;;;;5037203;28;20049;-83
2022/05/07 08:26:14;;;;;;;138.93;126.93;;;16.30;90.40;;;;;;5022568;28;20049;-83
2022/05/07 08:28:42;;;;;;;139.18;127.18;;;16.40;90.40;;;;;;5024784;28;20049;-82
2022/05/07 08:31:11;;;;;;;134.75;123.35;;;16.50;90.30;;;;;;5026959;28;20062;-84
2022/05/07 08:33:41;;;;;;;138.93;126.93;;;16.50;90.40;;;;;;5024289;28;20045;-83
2022/05/07 08:36:09;;;;;;;141.20;129.00;;;16.50;90.40;;;;;;5023489;28;20057;-83
2022/05/07 08:38:36;;;;;;;142.77;130.55;;;16.60;90.40;;;;;;5023863;28;20052;-82
2022/05/07 08:41:03;;;;;;;135.73;124.10;;;16.60;90.40;;;;;;5027743;28;20069;-83
2022/05/07 08:43:36;;;;;;;140.60;128.48;;;16.70;90.30;;;;;;5025108;28;20046;-82
2022/05/07 08:46:10;;;;;;;136.73;125.13;;;16.70;90.30;;;;;;5027860;28;20086;-83
2022/05/07 08:48:39;;;;;;;138.65;126.50;;;16.80;90.20;;;;;;5036139;28;20061;-83
2022/05/07 08:51:07;;;;;;;140.60;128.60;;;16.80;90.00;;;;;;5037040;28;20057;-83
2022/05/07 08:53:34;;;;;;;138.73;126.97;;;16.90;89.80;;;;;;5026932;28;20507;-84
2022/05/07 08:56:01;;;;;;;136.27;124.57;;;16.90;89.50;;;;;;5010130;28;20073;-84
2022/05/07 08:58:29;;;;;;;146.55;133.82;;;16.90;89.50;;;;;;5023820;28;20045;-84
2022/05/07 09:00:57;;;;;;;140.75;128.30;;;17.00;89.20;;;;;;5025970;28;20091;-85
2022/05/07 09:03:25;;;;;;;137.10;125.35;;;17.00;88.00;;;;;;5025893;28;20691;-85
2022/05/07 09:05:52;;;;;;;141.32;129.13;;;17.00;87.90;;;;;;5022132;28;20053;-85
2022/05/07 09:08:26;;;;;;;138.57;126.47;;;17.10;88.00;;;;;;5026603;28;20136;-85
2022/05/07 09:10:55;;;;;;;136.17;124.30;;;17.10;87.80;;;;;;5011604;28;20053;-84
2022/05/07 09:13:21;;;;;;;137.85;126.25;;;17.10;87.60;;;;;;5029985;28;20049;-85
2022/05/07 09:15:51;;;;;;;138.02;125.88;;;17.20;87.60;;;;;;5027698;28;20045;-84
2022/05/07 09:18:20;;;;;;;138.95;127.10;;;17.20;87.60;;;;;;5007409;28;20077;-84
2022/05/07 09:21:20;;;;;;;141.90;129.55;;;17.20;87.30;;;;;;5033871;28;20054;-84
2022/05/07 09:23:50;;;;;;;147.90;135.30;;;17.30;86.90;;;;;;5016308;28;20085;-83
2022/05/07 09:26:39;;;;;;;142.40;130.15;;;17.30;86.70;;;;;;5037109;28;20073;-84
2022/05/07 09:29:08;;;;;;;146.35;133.57;;;17.30;86.60;;;;;;5015789;28;20057;-84
2022/05/07 09:31:36;;;;;;;150.02;136.52;;;17.40;86.90;;;;;;4999388;28;20077;-84
2022/05/07 09:36:57;;;;;;;143.50;131.27;;;17.40;86.30;;;;;;5013298;28;20073;-84
2022/05/07 09:39:31;;;;;;;143.00;131.00;;;17.40;86.40;;;;;;5023347;28;20082;-84
2022/05/07 09:41:59;;;;;;;146.52;134.15;;;17.50;86.50;;;;;;4997730;28;20078;-83
2022/05/07 09:44:27;;;;;;;145.93;133.50;;;17.50;86.50;;;;;;5014639;28;20372;-84
2022/05/07 09:46:55;;;;;;;149.30;136.15;;;17.50;86.50;;;;;;5014728;28;20058;-83
2022/05/07 09:49:24;;;;;;;143.43;131.38;;;17.60;86.50;;;;;;5000894;28;20060;-85
2022/05/07 09:51:53;;;;;;;140.70;128.57;;;17.60;86.20;;;;;;5024332;28;20496;-84
2022/05/07 09:59:53;;;;;;;147.57;134.68;;;17.70;85.90;;;;;;5014484;28;20042;-84
2022/05/07 10:02:32;;;;;;;146.40;134.18;;;17.70;86.10;;;;;;5009235;28;20050;-84
2022/05/07 10:05:22;;;;;;;148.50;135.50;;;17.70;86.50;;;;;;5015498;28;20637;-85
2022/05/07 10:08:12;;;;;;;156.07;142.52;;;17.80;86.50;;;;;;5012056;28;20058;-83
2022/05/07 10:10:45;;;;;;;151.13;138.23;;;17.80;86.00;;;;;;5030926;28;20144;-83
2022/05/07 10:13:17;;;;;;;153.48;140.45;;;17.90;86.10;;;;;;5013455;28;20050;-85
2022/05/07 10:15:46;;;;;;;148.63;136.20;;;17.90;86.40;;;;;;4996726;28;20502;-81
2022/05/07 10:18:17;;;;;;;148.68;136.15;;;17.80;86.50;;;;;;5013608;28;20093;-83
2022/05/07 10:20:45;;;;;;;151.82;139.10;;;17.90;86.80;;;;;;5014225;28;20062;-85
2022/05/07 10:23:13;;;;;;;149.80;137.30;;;17.90;86.80;;;;;;5013809;28;20089;-83
2022/05/07 10:25:44;;;;;;;148.43;135.98;;;18.00;86.90;;;;;;5013337;28;20060;-84
2022/05/07 10:28:12;;;;;;;149.98;137.57;;;18.00;86.80;;;;;;5010609;28;20061;-85
2022/05/07 10:30:50;;;;;;;150.88;138.45;;;18.10;87.00;;;;;;5011893;28;20459;-85
2022/05/07 10:33:18;;;;;;;151.70;138.68;;;18.10;86.10;;;;;;5013556;28;20562;-83
2022/05/07 10:35:47;;;;;;;148.15;136.02;;;18.20;86.40;;;;;;5013416;28;20054;-84
2022/05/07 10:38:15;;;;;;;153.07;140.52;;;18.30;86.30;;;;;;5013731;28;20434;-84
2022/05/07 10:40:54;;;;;;;150.80;138.20;;;18.30;86.00;;;;;;5013240;28;20050;-84
2022/05/07 10:43:28;;;;;;;150.50;138.23;;;18.30;85.60;;;;;;5009957;28;20165;-84
2022/05/07 10:45:56;;;;;;;154.32;141.90;;;18.40;85.60;;;;;;5019402;28;20061;-84
2022/05/07 10:48:23;;;;;;;155.70;143.05;;;18.40;85.70;;;;;;5007783;28;20469;-84
2022/05/07 10:50:55;;;;;;;147.43;135.40;;;18.50;85.00;;;;;;5013762;28;20046;-84
2022/05/07 10:53:23;;;;;;;150.38;137.73;;;18.50;84.80;;;;;;5012878;28;20411;-84
2022/05/07 10:55:55;;;;;;;145.68;133.65;;;18.50;84.80;;;;;;5013087;28;20066;-85
2022/05/07 10:58:29;;;;;;;146.30;134.45;;;18.60;84.70;;;;;;4999221;28;20160;-85
2022/05/07 11:00:59;;;;;;;144.13;132.40;;;18.60;84.60;;;;;;5013941;28;20108;-85
2022/05/07 11:03:27;;;;;;;154.38;141.85;;;18.70;84.50;;;;;;5011590;28;20500;-83
2022/05/07 11:06:01;;;;;;;154.65;142.02;;;18.80;83.90;;;;;;5013733;28;20141;-79
2022/05/07 11:08:30;;;;;;;154.70;142.23;;;18.80;83.70;;;;;;5013567;28;20050;-79
2022/05/07 11:11:09;;;;;;;155.82;143.52;;;18.90;83.60;;;;;;4997933;28;20140;-79
2022/05/07 11:13:46;;;;;;;154.40;142.10;;;18.90;83.70;;;;;;5012446;28;20491;-81
2022/05/07 11:16:13;;;;;;;154.82;141.98;;;18.90;83.60;;;;;;5013264;28;20057;-80
2022/05/07 11:18:41;;;;;;;154.23;141.85;;;18.90;84.10;;;;;;5019527;28;20133;-83
2022/05/07 11:21:08;;;;;;;154.18;141.85;;;19.00;84.30;;;;;;5000950;28;20061;-81
2022/05/07 11:23:43;;;;;;;154.85;142.27;;;19.00;84.40;;;;;;4996952;28;20140;-79
2022/05/07 11:26:17;;;;;;;150.98;138.57;;;19.10;83.90;;;;;;5026758;28;20523;-79
2022/05/07 11:28:45;;;;;;;151.50;139.02;;;19.20;83.80;;;;;;5034785;28;20053;-79
2022/05/07 11:31:15;;;;;;;152.38;140.27;;;19.20;83.50;;;;;;5016438;28;20141;-79
2022/05/07 11:33:42;;;;;;;151.35;139.13;;;19.30;83.10;;;;;;5036820;28;20049;-79
2022/05/07 11:36:10;;;;;;;149.77;137.88;;;19.40;82.80;;;;;;5037220;28;20600;-79
2022/05/07 11:38:39;;;;;;;151.40;139.45;;;19.40;82.50;;;;;;5041524;28;20490;-79
2022/05/07 11:41:15;;;;;;;149.00;137.15;;;19.50;83.10;;;;;;5024113;28;20065;-78
2022/05/07 11:46:28;;;;;;;145.73;134.07;;;19.60;82.50;;;;;;5040469;28;20046;-80
2022/05/07 11:49:06;;;;;;;147.05;135.38;;;19.60;82.30;;;;;;5016002;28;20068;-79
2022/05/07 11:51:33;;;;;;;145.93;134.40;;;19.70;81.60;;;;;;5017139;28;20056;-80
2022/05/07 11:54:09;;;;;;;144.88;133.48;;;19.80;81.80;;;;;;5016480;28;20615;-80
2022/05/07 11:56:47;;;;;;;146.77;135.30;;;19.80;81.20;;;;;;5016289;28;20141;-79
2022/05/07 11:59:15;;;;;;;145.70;134.10;;;19.90;80.10;;;;;;5016460;28;20527;-79
2022/05/07 12:01:41;;;;;;;146.65;135.15;;;19.90;79.90;;;;;;5034212;28;20053;-79
2022/05/07 12:04:09;;;;;;;151.05;139.13;;;20.00;79.90;;;;;;5015190;28;20052;-79
2022/05/07 12:06:37;;;;;;;150.48;138.68;;;20.00;79.50;;;;;;5014865;28;20057;-79
2022/05/07 12:09:11;;;;;;;152.15;139.90;;;20.00;79.60;;;;;;5031289;28;20133;-80
2022/05/07 12:11:38;;;;;;;149.45;137.57;;;20.10;79.90;;;;;;5015110;28;20046;-79
2022/05/07 12:14:06;;;;;;;150.55;138.65;;;20.10;79.50;;;;;;5016845;28;20049;-79
2022/05/07 12:19:41;;;;;;;153.60;141.38;;;20.20;78.80;;;;;;4956008;28;20586;-79
2022/05/07 12:30:22;;;;;;;157.45;141.55;;;20.30;79.00;;;;;;5016672;28;20042;-80
2022/05/07 12:32:54;;;;;;;148.52;137.00;;;20.40;79.10;;;;;;5016345;28;20128;-79
2022/05/07 12:35:21;;;;;;;153.18;141.15;;;20.30;79.60;;;;;;5016307;28;20061;-80
2022/05/07 12:37:48;;;;;;;152.75;140.90;;;20.40;79.60;;;;;;5015026;28;20049;-79
2022/05/07 12:40:15;;;;;;;155.02;142.88;;;20.50;78.90;;;;;;5016794;28;20057;-80
2022/05/07 12:42:42;;;;;;;153.30;141.18;;;20.50;77.70;;;;;;5016463;28;20591;-80
2022/05/07 12:45:10;;;;;;;154.60;142.20;;;20.60;78.20;;;;;;5016264;28;20128;-80
2022/05/07 12:47:39;;;;;;;153.00;141.00;;;20.60;78.30;;;;;;5015822;28;20096;-80
2022/05/07 12:50:07;;;;;;;159.52;146.70;;;20.70;77.80;;;;;;5016215;28;20061;-80
2022/05/07 12:52:35;;;;;;;159.90;146.90;;;20.70;77.60;;;;;;5016062;28;20049;-80
2022/05/07 12:55:02;;;;;;;169.75;156.65;;;20.80;77.80;;;;;;5034192;28;20141;-80
2022/05/07 12:57:30;;;;;;;165.77;152.90;;;20.80;78.10;;;;;;5015461;28;20057;-80
2022/05/07 12:59:57;;;;;;;157.52;145.18;;;20.90;77.60;;;;;;5016540;28;20049;-80
2022/05/07 13:02:24;;;;;;;156.60;143.90;;;20.90;77.60;;;;;;5016032;28;20046;-80